createdAt,value
2024-02-24T00:00:07.712Z,1.998
2024-02-24T00:01:07.469Z,1.966
2024-02-24T00:02:07.329Z,1.928
2024-02-24T00:03:07.312Z,1.939
2024-02-24T00:04:07.022Z,1.934
2024-02-24T00:05:08.059Z,1.936
2024-02-24T00:06:08.487Z,1.910
2024-02-24T00:07:07.281Z,1.923
2024-02-24T00:08:07.309Z,1.915
2024-02-24T00:10:07.962Z,1.851
2024-02-24T00:11:08.108Z,1.784
2024-02-24T00:12:07.321Z,1.723
2024-02-24T00:13:07.562Z,1.779
2024-02-24T00:14:07.403Z,1.749
2024-02-24T00:15:07.328Z,1.731
2024-02-24T00:16:08.023Z,1.677
2024-02-24T00:17:07.987Z,1.704
2024-02-24T00:18:07.663Z,1.667
2024-02-24T00:19:07.872Z,1.653
2024-02-24T00:20:08.215Z,1.603
2024-02-24T00:21:07.199Z,1.592
2024-02-24T00:22:08.015Z,1.613
2024-02-24T00:23:07.824Z,1.603
2024-02-24T00:25:07.395Z,1.605
2024-02-24T00:26:07.117Z,1.600
2024-02-24T00:27:07.890Z,1.640
2024-02-24T00:29:07.629Z,1.589
2024-02-24T00:30:07.640Z,1.541
2024-02-24T00:31:07.421Z,1.565
2024-02-24T00:32:07.321Z,1.520
2024-02-24T00:33:07.194Z,1.501
2024-02-24T00:34:08.143Z,1.643
2024-02-24T00:35:07.970Z,1.555
2024-02-24T00:36:07.933Z,1.555
2024-02-24T00:37:07.632Z,1.512
2024-02-24T00:38:07.418Z,1.517
2024-02-24T00:39:07.233Z,1.530
2024-02-24T00:40:08.004Z,1.480
2024-02-24T00:41:08.097Z,1.597
2024-02-24T00:42:07.826Z,1.512
2024-02-24T00:44:07.188Z,1.485
2024-02-24T00:45:07.962Z,1.536
2024-02-24T00:46:07.578Z,1.493
2024-02-24T00:47:07.264Z,1.464
2024-02-24T00:48:07.604Z,1.493
2024-02-24T00:49:07.550Z,1.456
2024-02-24T00:50:07.425Z,1.456
2024-02-24T00:51:07.119Z,1.384
2024-02-24T00:52:07.871Z,1.434
2024-02-24T00:53:07.615Z,1.474
2024-02-24T00:54:07.416Z,1.482
2024-02-24T00:55:07.123Z,1.442
2024-02-24T00:56:08.104Z,1.410
2024-02-24T00:58:07.691Z,1.389
2024-02-24T00:59:07.403Z,1.344
2024-02-24T01:00:07.228Z,1.336
2024-02-24T01:01:08.229Z,1.352
2024-02-24T01:02:07.492Z,1.352
2024-02-24T01:04:07.266Z,1.309
2024-02-24T01:05:07.249Z,1.322
2024-02-24T01:06:07.985Z,1.290
2024-02-24T01:07:08.064Z,1.352
2024-02-24T01:08:08.012Z,1.381
2024-02-24T01:09:07.595Z,1.392
2024-02-24T01:10:07.260Z,1.402
2024-02-24T01:11:07.221Z,1.437
2024-02-24T01:12:07.304Z,1.456
2024-02-24T01:14:08.327Z,1.445
2024-02-24T01:15:07.749Z,1.517
2024-02-24T01:17:07.349Z,1.571
2024-02-24T01:18:08.386Z,1.592
2024-02-24T01:19:07.964Z,1.568
2024-02-24T01:20:07.806Z,1.560
2024-02-24T01:21:07.689Z,1.528
2024-02-24T01:22:07.573Z,1.517
2024-02-24T01:23:07.270Z,1.496
2024-02-24T01:25:07.815Z,1.493
2024-02-24T01:26:07.655Z,1.472
2024-02-24T01:27:07.403Z,1.458
2024-02-24T01:28:07.168Z,1.472
2024-02-24T01:29:07.939Z,1.472
2024-02-24T01:30:08.052Z,1.429
2024-02-24T01:31:08.075Z,1.458
2024-02-24T01:32:07.957Z,1.472
2024-02-24T01:33:07.511Z,1.448
2024-02-24T01:34:07.505Z,1.413
2024-02-24T01:35:07.426Z,1.389
2024-02-24T01:36:07.663Z,1.389
2024-02-24T01:37:07.411Z,1.368
2024-02-24T01:38:07.162Z,1.287
2024-02-24T01:40:07.870Z,1.330
2024-02-24T01:41:07.679Z,1.330
2024-02-24T01:42:07.466Z,1.330
2024-02-24T01:43:07.121Z,1.277
2024-02-24T01:44:07.871Z,1.266
2024-02-24T01:46:07.683Z,1.189
2024-02-24T01:47:07.791Z,1.170
2024-02-24T01:48:08.128Z,1.162
2024-02-24T01:49:07.651Z,1.162
2024-02-24T01:50:07.966Z,1.178
2024-02-24T01:51:07.955Z,1.138
2024-02-24T01:52:07.554Z,1.141
2024-02-24T01:53:07.315Z,1.186
2024-02-24T01:54:07.124Z,1.178
2024-02-24T01:55:07.764Z,1.085
2024-02-24T01:57:07.472Z,1.133
2024-02-24T01:58:07.322Z,1.085
2024-02-24T01:59:07.088Z,1.130
2024-02-24T02:02:08.046Z,1.165
2024-02-24T02:04:07.669Z,1.154
2024-02-24T02:05:08.242Z,1.178
2024-02-24T02:06:07.811Z,1.151
2024-02-24T02:07:07.818Z,1.149
2024-02-24T02:08:07.925Z,1.199
2024-02-24T02:09:07.779Z,1.119
2024-02-24T02:12:12.661Z,1.044
2024-02-24T02:13:07.557Z,1.085
2024-02-24T02:14:07.292Z,1.087
2024-02-24T02:17:07.682Z,1.074
2024-02-24T02:18:08.345Z,1.052
2024-02-24T02:19:08.399Z,1.023
2024-02-24T02:20:07.672Z,0.972
2024-02-24T02:21:07.733Z,1.036
2024-02-24T02:22:07.337Z,1.058
2024-02-24T02:23:07.189Z,1.020
2024-02-24T02:24:08.012Z,0.994
2024-02-24T02:25:07.728Z,1.071
2024-02-24T02:26:07.500Z,1.055
2024-02-24T02:27:07.352Z,1.047
2024-02-24T02:28:07.393Z,1.082
2024-02-24T02:29:08.079Z,1.061
2024-02-24T02:30:07.989Z,1.125
2024-02-24T02:31:07.624Z,1.069
2024-02-24T02:32:07.437Z,0.975
2024-02-24T02:33:08.192Z,1.010
2024-02-24T02:34:08.433Z,1.028
2024-02-24T02:35:07.352Z,1.015
2024-02-24T02:36:07.202Z,0.972
2024-02-24T02:37:08.046Z,1.004
2024-02-24T02:38:07.755Z,0.956
2024-02-24T02:39:07.497Z,0.911
2024-02-24T02:42:07.897Z,0.866
2024-02-24T02:43:07.677Z,0.834
2024-02-24T02:44:07.410Z,0.801
2024-02-24T02:45:07.180Z,0.804
2024-02-24T02:46:07.892Z,0.809
2024-02-24T02:47:17.698Z,0.807
2024-02-24T02:49:08.559Z,0.783
2024-02-24T02:50:07.967Z,0.719
2024-02-24T02:51:07.680Z,0.732
2024-02-24T02:52:07.342Z,0.713
2024-02-24T02:53:07.019Z,0.716
2024-02-24T02:54:07.799Z,0.708
2024-02-24T02:56:07.231Z,0.668
2024-02-24T02:57:07.903Z,0.631
2024-02-24T02:58:07.543Z,0.663
2024-02-24T02:59:07.212Z,0.633
2024-02-24T03:00:07.099Z,0.657
2024-02-24T03:01:08.161Z,0.668
2024-02-24T03:02:07.311Z,0.636
2024-02-24T03:03:07.080Z,0.609
2024-02-24T03:04:08.089Z,0.631
2024-02-24T03:07:07.184Z,0.604
2024-02-24T03:08:07.894Z,0.665
2024-02-24T03:09:07.625Z,0.660
2024-02-24T03:10:07.374Z,0.596
2024-02-24T03:11:07.582Z,0.641
2024-02-24T03:12:08.181Z,0.617
2024-02-24T03:13:07.366Z,0.679
2024-02-24T03:14:07.058Z,0.703
2024-02-24T03:15:07.863Z,0.705
2024-02-24T03:16:07.716Z,0.695
2024-02-24T03:17:07.557Z,0.668
2024-02-24T03:18:07.751Z,0.604
2024-02-24T03:19:07.261Z,0.644
2024-02-24T03:20:07.189Z,0.620
2024-02-24T03:21:07.267Z,0.604
2024-02-24T03:22:07.898Z,0.727
2024-02-24T03:23:08.062Z,0.679
2024-02-24T03:25:07.624Z,0.697
2024-02-24T03:26:07.448Z,0.676
2024-02-24T03:27:07.337Z,0.647
2024-02-24T03:28:07.017Z,0.628
2024-02-24T03:29:07.970Z,0.644
2024-02-24T03:30:07.876Z,0.671
2024-02-24T03:31:07.487Z,0.657
2024-02-24T03:32:07.307Z,0.644
2024-02-24T03:33:07.709Z,0.668
2024-02-24T03:34:08.410Z,0.649
2024-02-24T03:35:07.286Z,0.636
2024-02-24T03:36:07.243Z,0.609
2024-02-24T03:37:07.945Z,0.604
2024-02-24T03:38:07.886Z,0.583
2024-02-24T03:39:07.648Z,0.623
2024-02-24T03:41:07.069Z,0.700
2024-02-24T03:42:07.993Z,0.647
2024-02-24T03:43:07.688Z,0.705
2024-02-24T03:44:07.513Z,0.647
2024-02-24T03:45:07.252Z,0.671
2024-02-24T03:46:07.932Z,0.671
2024-02-24T03:47:08.044Z,0.647
2024-02-24T03:48:08.836Z,0.617
2024-02-24T03:49:07.610Z,0.569
2024-02-24T03:50:07.627Z,0.558
2024-02-24T03:51:07.426Z,0.550
2024-02-24T03:52:07.080Z,0.558
2024-02-24T03:53:07.753Z,0.604
2024-02-24T03:55:07.221Z,0.636
2024-02-24T03:56:08.269Z,0.668
2024-02-24T03:57:07.231Z,0.657
2024-02-24T03:58:07.865Z,0.641
2024-02-24T03:59:07.691Z,0.649
2024-02-24T04:01:07.546Z,0.620
2024-02-24T04:03:07.221Z,0.631
2024-02-24T04:04:08.265Z,0.588
2024-02-24T04:05:07.235Z,0.510
2024-02-24T04:06:07.851Z,0.484
2024-02-24T04:07:07.836Z,0.470
2024-02-24T04:08:07.568Z,0.489
2024-02-24T04:09:07.854Z,0.446
2024-02-24T04:11:07.684Z,0.476
2024-02-24T04:12:08.271Z,0.542
2024-02-24T04:13:07.214Z,0.529
2024-02-24T04:14:07.941Z,0.542
2024-02-24T04:15:07.783Z,0.524
2024-02-24T04:16:07.400Z,0.561
2024-02-24T04:17:07.225Z,0.599
2024-02-24T04:18:08.640Z,0.577
2024-02-24T04:20:07.277Z,0.518
2024-02-24T04:21:08.081Z,0.524
2024-02-24T04:22:07.744Z,0.524
2024-02-24T04:23:07.474Z,0.566
2024-02-24T04:25:07.001Z,0.532
2024-02-24T04:26:07.814Z,0.489
2024-02-24T04:27:07.534Z,0.476
2024-02-24T04:28:07.145Z,0.484
2024-02-24T04:29:08.013Z,0.462
2024-02-24T04:30:07.804Z,0.542
2024-02-24T04:31:07.465Z,0.508
2024-02-24T04:32:07.168Z,0.462
2024-02-24T04:33:07.673Z,0.449
2024-02-24T04:34:08.604Z,0.468
2024-02-24T04:35:07.487Z,0.433
2024-02-24T04:36:07.700Z,0.385
2024-02-24T04:37:07.311Z,0.486
2024-02-24T04:38:08.191Z,0.476
2024-02-24T04:39:07.258Z,0.420
2024-02-24T04:40:08.009Z,0.390
2024-02-24T04:41:07.729Z,0.342
2024-02-24T04:43:07.187Z,0.412
2024-02-24T04:44:07.877Z,0.433
2024-02-24T04:45:07.755Z,0.430
2024-02-24T04:46:07.432Z,0.404
2024-02-24T04:47:07.064Z,0.374
2024-02-24T04:48:08.843Z,0.329
2024-02-24T04:49:07.392Z,0.356
2024-02-24T04:50:07.334Z,0.345
2024-02-24T04:51:11.546Z,0.337
2024-02-24T04:52:07.192Z,0.334
2024-02-24T04:53:07.898Z,0.337
2024-02-24T04:54:07.690Z,0.318
2024-02-24T04:55:07.401Z,0.332
2024-02-24T04:56:07.157Z,0.364
2024-02-24T04:57:07.972Z,0.326
2024-02-24T04:59:07.341Z,0.318
2024-02-24T05:00:07.097Z,0.283
2024-02-24T05:01:08.089Z,0.315
2024-02-24T05:02:08.002Z,0.353
2024-02-24T05:04:07.560Z,0.326
2024-02-24T05:05:07.307Z,0.323
2024-02-24T05:06:07.831Z,0.318
2024-02-24T05:07:07.965Z,0.364
2024-02-24T05:08:07.788Z,0.340
2024-02-24T05:09:08.494Z,0.345
2024-02-24T05:10:07.463Z,0.350
2024-02-24T05:11:07.322Z,0.385
2024-02-24T05:12:07.555Z,0.382
2024-02-24T05:13:11.438Z,0.299
2024-02-24T05:15:07.863Z,0.321
2024-02-24T05:16:07.545Z,0.353
2024-02-24T05:17:07.150Z,0.305
2024-02-24T05:18:08.905Z,0.315
2024-02-24T05:19:07.371Z,0.313
2024-02-24T05:20:07.612Z,0.241
2024-02-24T05:21:07.606Z,0.209
2024-02-24T05:22:07.192Z,0.193
2024-02-24T05:23:07.888Z,0.198
2024-02-24T05:24:07.713Z,0.171
2024-02-24T05:25:07.506Z,0.190
2024-02-24T05:26:07.253Z,0.201
2024-02-24T05:28:07.727Z,0.174
2024-02-24T05:29:07.478Z,0.147
2024-02-24T05:30:07.396Z,0.158
2024-02-24T05:33:09.065Z,0.161
2024-02-24T05:34:08.044Z,0.137
2024-02-24T05:35:07.115Z,0.198
2024-02-24T05:36:07.986Z,0.182
2024-02-24T05:37:07.706Z,0.198
2024-02-24T05:38:07.445Z,0.150
2024-02-24T05:39:07.475Z,0.201
2024-02-24T05:40:07.141Z,0.145
2024-02-24T05:41:07.902Z,0.177
2024-02-24T05:42:07.821Z,0.129
2024-02-24T05:43:07.593Z,0.129
2024-02-24T05:44:07.345Z,0.129
2024-02-24T05:45:08.108Z,0.174
2024-02-24T05:46:11.986Z,0.190
2024-02-24T05:47:07.742Z,0.187
2024-02-24T05:48:07.986Z,0.217
2024-02-24T05:49:07.103Z,0.190
2024-02-24T05:50:08.140Z,0.206
2024-02-24T05:51:08.085Z,0.246
2024-02-24T05:52:07.762Z,0.259
2024-02-24T05:53:10.023Z,0.289
2024-02-24T05:54:07.684Z,0.313
2024-02-24T05:55:07.508Z,0.337
2024-02-24T05:56:07.521Z,0.358
2024-02-24T05:57:07.432Z,0.417
2024-02-24T05:58:07.098Z,0.428
2024-02-24T05:59:07.806Z,0.436
2024-02-24T06:00:07.605Z,0.449
2024-02-24T06:01:07.472Z,0.401
2024-02-24T06:02:07.230Z,0.401
2024-02-24T06:03:07.288Z,0.433
2024-02-24T06:05:08.079Z,0.404
2024-02-24T06:07:07.688Z,0.385
2024-02-24T06:08:07.551Z,0.393
2024-02-24T06:09:07.602Z,0.382
2024-02-24T06:10:07.464Z,0.398
2024-02-24T06:11:07.621Z,0.374
2024-02-24T06:12:08.064Z,0.468
2024-02-24T06:13:07.071Z,0.454
2024-02-24T06:14:07.674Z,0.473
2024-02-24T06:15:07.523Z,0.444
2024-02-24T06:16:07.243Z,0.460
2024-02-24T06:17:08.027Z,0.422
2024-02-24T06:18:08.674Z,0.444
2024-02-24T06:19:08.058Z,0.457
2024-02-24T06:21:07.943Z,0.529
2024-02-24T06:22:08.029Z,0.583
2024-02-24T06:25:07.779Z,0.633
2024-02-24T06:26:07.445Z,0.628
2024-02-24T06:27:07.261Z,0.705
2024-02-24T06:28:08.036Z,0.681
2024-02-24T06:29:07.707Z,0.767
2024-02-24T06:30:07.826Z,0.772
2024-02-24T06:31:07.460Z,0.924
2024-02-24T06:34:13.056Z,1.162
2024-02-24T06:37:07.643Z,1.138
2024-02-24T06:38:07.361Z,1.117
2024-02-24T06:39:07.167Z,1.114
2024-02-24T06:40:10.715Z,1.149
2024-02-24T06:41:07.778Z,0.994
2024-02-24T06:42:07.656Z,0.935
2024-02-24T06:43:07.323Z,0.908
2024-02-24T06:44:07.020Z,0.844
2024-02-24T06:45:07.879Z,0.793
2024-02-24T06:46:07.765Z,0.826
2024-02-24T06:47:21.128Z,0.785
2024-02-24T06:49:09.149Z,0.793
2024-02-24T06:50:07.599Z,0.772
2024-02-24T06:51:07.569Z,0.732
2024-02-24T06:52:07.406Z,0.777
2024-02-24T06:53:07.144Z,0.780
2024-02-24T06:54:07.258Z,0.809
2024-02-24T06:55:08.199Z,0.823
2024-02-24T06:56:07.939Z,0.823
2024-02-24T06:57:10.778Z,0.844
2024-02-24T06:58:07.374Z,0.860
2024-02-24T07:00:07.948Z,0.860
2024-02-24T07:01:07.819Z,0.967
2024-02-24T07:02:07.698Z,0.935
2024-02-24T07:03:08.250Z,0.908
2024-02-24T07:04:07.311Z,1.010
2024-02-24T07:07:07.934Z,1.026
2024-02-24T07:08:08.158Z,1.055
2024-02-24T07:09:08.094Z,1.162
2024-02-24T07:10:07.791Z,1.269
2024-02-24T07:11:07.785Z,1.229
2024-02-24T07:12:08.185Z,1.290
2024-02-24T07:13:07.013Z,1.314
2024-02-24T07:14:07.903Z,1.338
2024-02-24T07:15:07.782Z,1.336
2024-02-24T07:16:07.483Z,1.405
2024-02-24T07:17:07.145Z,1.442
2024-02-24T07:18:07.779Z,1.512
2024-02-24T07:19:08.199Z,1.557
2024-02-24T07:20:07.088Z,1.560
2024-02-24T07:21:09.879Z,1.587
2024-02-24T07:22:07.673Z,1.672
2024-02-24T07:23:07.310Z,1.667
2024-02-24T07:26:07.556Z,1.830
2024-02-24T07:27:07.760Z,1.816
2024-02-24T07:28:07.411Z,1.872
2024-02-24T07:31:07.688Z,2.030
2024-02-24T07:33:08.009Z,2.206
2024-02-24T07:34:08.316Z,2.198
2024-02-24T07:36:07.399Z,2.313
2024-02-24T07:39:07.737Z,2.508
2024-02-24T07:40:07.505Z,2.580
2024-02-24T07:41:07.137Z,2.607
2024-02-24T07:42:07.890Z,2.676
2024-02-24T07:44:07.224Z,2.751
2024-02-24T07:45:07.267Z,2.860
2024-02-24T07:46:07.030Z,2.892
2024-02-24T07:47:07.837Z,3.018
2024-02-24T07:48:08.105Z,3.111
2024-02-24T07:49:07.701Z,3.223
2024-02-24T07:50:07.510Z,3.239
2024-02-24T07:51:07.786Z,3.258
2024-02-24T07:52:07.533Z,3.197
2024-02-24T07:53:07.221Z,3.285
2024-02-24T07:54:08.155Z,3.298
2024-02-24T07:55:07.862Z,3.306
2024-02-24T07:56:07.561Z,3.199
2024-02-24T07:57:07.725Z,3.264
2024-02-24T07:58:07.421Z,3.253
2024-02-24T08:01:07.963Z,3.189
2024-02-24T08:03:07.921Z,3.082
2024-02-24T08:04:07.768Z,3.130
2024-02-24T08:05:07.751Z,3.117
2024-02-24T08:06:09.080Z,3.085
2024-02-24T08:08:07.512Z,3.106
2024-02-24T08:09:07.239Z,3.213
2024-02-24T08:10:08.031Z,3.314
2024-02-24T08:11:09.874Z,3.349
2024-02-24T08:12:08.449Z,3.426
2024-02-24T08:13:07.373Z,3.445
2024-02-24T08:16:07.030Z,3.728
2024-02-24T08:17:07.701Z,3.787
2024-02-24T08:18:07.897Z,3.707
2024-02-24T08:19:07.536Z,3.832
2024-02-24T08:20:07.483Z,3.963
2024-02-24T08:21:07.741Z,4.033
2024-02-24T08:22:07.692Z,4.038
2024-02-24T08:23:07.443Z,4.150
2024-02-24T08:24:07.190Z,4.412
2024-02-24T08:25:08.156Z,4.671
2024-02-24T08:26:07.138Z,4.884
2024-02-24T08:27:07.033Z,5.095
2024-02-24T08:28:07.746Z,4.916
2024-02-24T08:29:07.395Z,5.023
2024-02-24T08:30:08.024Z,5.007
2024-02-24T08:31:07.799Z,5.106
2024-02-24T08:32:07.817Z,5.045
2024-02-24T08:33:08.156Z,4.919
2024-02-24T08:34:07.641Z,4.639
2024-02-24T08:35:07.950Z,4.722
2024-02-24T08:36:08.536Z,4.625
2024-02-24T08:37:07.660Z,4.711
2024-02-24T08:38:07.359Z,4.839
2024-02-24T08:39:07.722Z,4.879
2024-02-24T08:40:07.732Z,4.796
2024-02-24T08:41:07.354Z,4.973
2024-02-24T08:42:07.156Z,4.951
2024-02-24T08:43:07.808Z,5.026
2024-02-24T08:44:07.496Z,5.031
2024-02-24T08:45:07.205Z,4.975
2024-02-24T08:46:10.532Z,4.932
2024-02-24T08:47:07.309Z,4.908
2024-02-24T08:48:07.674Z,4.981
2024-02-24T08:49:08.105Z,4.820
2024-02-24T08:50:08.182Z,4.794
2024-02-24T08:51:07.538Z,4.951
2024-02-24T08:53:07.279Z,5.026
2024-02-24T08:54:08.109Z,5.141
2024-02-24T08:55:07.758Z,5.127
2024-02-24T08:56:07.466Z,5.197
2024-02-24T08:57:07.375Z,5.090
2024-02-24T08:58:07.220Z,5.042
2024-02-24T08:59:07.903Z,4.975
2024-02-24T09:00:07.807Z,4.722
2024-02-24T09:02:07.407Z,4.706
2024-02-24T09:03:07.399Z,4.583
2024-02-24T09:04:07.643Z,4.689
2024-02-24T09:05:07.324Z,4.612
2024-02-24T09:06:07.914Z,4.633
2024-02-24T09:07:07.469Z,4.487
2024-02-24T09:08:07.611Z,4.543
2024-02-24T09:09:07.506Z,4.665
2024-02-24T09:10:09.997Z,4.591
2024-02-24T09:13:08.032Z,4.246
2024-02-24T09:14:07.716Z,4.484
2024-02-24T09:15:07.586Z,4.471
2024-02-24T09:16:07.231Z,4.471
2024-02-24T09:18:08.190Z,4.636
2024-02-24T09:19:07.761Z,4.617
2024-02-24T09:20:07.425Z,4.567
2024-02-24T09:21:09.785Z,4.673
2024-02-24T09:22:07.827Z,4.700
2024-02-24T09:23:07.557Z,4.796
2024-02-24T09:25:07.946Z,4.778
2024-02-24T09:26:07.641Z,4.895
2024-02-24T09:27:07.532Z,5.037
2024-02-24T09:28:08.390Z,4.847
2024-02-24T09:30:07.421Z,4.970
2024-02-24T09:31:07.130Z,4.898
2024-02-24T09:32:07.907Z,4.895
2024-02-24T09:33:08.342Z,4.892
2024-02-24T09:34:11.453Z,4.895
2024-02-24T09:35:07.968Z,4.892
2024-02-24T09:36:07.999Z,4.807
2024-02-24T09:37:07.670Z,4.828
2024-02-24T09:39:07.187Z,4.671
2024-02-24T09:40:10.673Z,4.711
2024-02-24T09:41:07.620Z,4.615
2024-02-24T09:43:07.183Z,4.652
2024-02-24T09:44:07.919Z,4.652
2024-02-24T09:45:07.734Z,4.639
2024-02-24T09:46:07.396Z,4.612
2024-02-24T09:47:07.058Z,4.663
2024-02-24T09:48:08.456Z,4.756
2024-02-24T09:49:08.596Z,4.730
2024-02-24T09:50:07.480Z,4.735
2024-02-24T09:51:07.880Z,4.802
2024-02-24T09:52:07.618Z,4.767
2024-02-24T09:53:07.259Z,4.791
2024-02-24T09:54:07.329Z,4.820
2024-02-24T09:55:07.985Z,4.727
2024-02-24T09:56:07.711Z,4.759
2024-02-24T09:57:07.532Z,4.855
2024-02-24T09:58:07.310Z,4.876
2024-02-24T10:00:07.537Z,4.876
2024-02-24T10:01:07.398Z,4.924
2024-02-24T10:04:07.885Z,5.111
2024-02-24T10:05:07.903Z,5.119
2024-02-24T10:06:08.862Z,5.183
2024-02-24T10:07:07.957Z,5.314
2024-02-24T10:08:07.614Z,5.354
2024-02-24T10:10:07.158Z,5.547
2024-02-24T10:11:08.100Z,5.544
2024-02-24T10:12:07.451Z,5.723
2024-02-24T10:14:06.991Z,6.065
2024-02-24T10:15:07.856Z,6.126
2024-02-24T10:16:07.514Z,6.286
2024-02-24T10:17:07.200Z,6.350
2024-02-24T10:18:09.266Z,6.431
2024-02-24T10:19:08.234Z,6.396
2024-02-24T10:20:07.437Z,6.671
2024-02-24T10:21:07.618Z,6.633
2024-02-24T10:22:07.345Z,6.746
2024-02-24T10:23:07.023Z,6.724
2024-02-24T10:24:07.944Z,6.783
2024-02-24T10:25:07.579Z,6.903
2024-02-24T10:26:07.599Z,6.876
2024-02-24T10:27:07.812Z,7.087
2024-02-24T10:28:08.018Z,7.411
2024-02-24T10:29:07.641Z,7.608
2024-02-24T10:30:11.430Z,7.875
2024-02-24T10:32:10.913Z,8.577
2024-02-24T10:33:11.189Z,8.743
2024-02-24T10:34:11.074Z,8.981
2024-02-24T10:35:10.141Z,8.965
2024-02-24T10:36:11.349Z,8.543
2024-02-24T10:37:10.391Z,8.481
2024-02-24T10:38:34.425Z,8.529
2024-02-24T10:39:10.913Z,8.099
2024-02-24T10:41:07.354Z,7.635
2024-02-24T10:43:07.328Z,7.974
2024-02-24T10:44:22.724Z,8.140
2024-02-24T10:46:07.467Z,8.612
2024-02-24T10:47:07.373Z,8.428
2024-02-24T10:48:08.011Z,8.951
2024-02-24T10:49:08.012Z,9.288
2024-02-24T10:50:07.211Z,9.186
2024-02-24T10:51:07.431Z,9.117
2024-02-24T10:53:08.323Z,9.381
2024-02-24T10:54:07.684Z,9.517
2024-02-24T10:55:07.608Z,9.942
2024-02-24T10:56:07.301Z,9.723
2024-02-24T10:57:08.450Z,9.638
2024-02-24T10:58:07.121Z,9.582
2024-02-24T10:59:07.821Z,9.638
2024-02-24T11:00:07.936Z,9.897
2024-02-24T11:01:08.292Z,9.408
2024-02-24T11:02:07.803Z,9.427
2024-02-24T11:04:07.953Z,9.763
2024-02-24T11:05:07.286Z,9.325
2024-02-24T11:06:07.815Z,9.659
2024-02-24T11:07:08.520Z,9.619
2024-02-24T11:08:08.087Z,9.517
2024-02-24T11:09:08.128Z,9.699
2024-02-24T11:10:07.881Z,10.089
2024-02-24T11:11:07.884Z,10.078
2024-02-24T11:12:08.145Z,10.316
2024-02-24T11:13:07.114Z,10.321
2024-02-24T11:14:16.090Z,10.335
2024-02-24T11:15:08.326Z,10.092
2024-02-24T11:16:07.232Z,9.873
2024-02-24T11:17:08.214Z,9.659
2024-02-24T11:18:09.012Z,9.544
2024-02-24T11:19:07.471Z,9.413
2024-02-24T11:21:07.581Z,8.965
2024-02-24T11:22:07.994Z,8.914
2024-02-24T11:24:07.681Z,8.909
2024-02-24T11:25:07.436Z,9.037
2024-02-24T11:28:07.694Z,8.834
2024-02-24T11:29:07.400Z,8.973
2024-02-24T11:30:07.535Z,9.208
2024-02-24T11:31:07.365Z,9.485
2024-02-24T11:33:08.076Z,9.723
2024-02-24T11:34:07.458Z,9.752
2024-02-24T11:35:07.934Z,9.702
2024-02-24T11:36:08.065Z,9.937
2024-02-24T11:37:07.819Z,9.622
2024-02-24T11:39:07.384Z,10.011
2024-02-24T11:40:07.149Z,10.110
2024-02-24T11:41:08.008Z,9.547
2024-02-24T11:42:07.903Z,9.971
2024-02-24T11:43:07.602Z,9.950
2024-02-24T11:44:07.278Z,10.003
2024-02-24T11:45:07.711Z,9.768
2024-02-24T11:46:07.870Z,9.835
2024-02-24T11:48:08.221Z,9.838
2024-02-24T11:49:08.610Z,10.201
2024-02-24T11:50:07.620Z,10.100
2024-02-24T11:51:07.594Z,10.228
2024-02-24T11:53:08.010Z,10.380
2024-02-24T11:54:07.854Z,10.292
2024-02-24T11:55:07.506Z,10.727
2024-02-24T11:56:07.158Z,10.380
2024-02-24T11:57:11.500Z,10.855
2024-02-24T11:59:07.342Z,10.711
2024-02-24T12:00:07.527Z,10.756
2024-02-24T12:01:07.647Z,10.861
2024-02-24T12:03:07.369Z,11.152
2024-02-24T12:04:07.369Z,11.104
2024-02-24T12:05:07.360Z,11.232
2024-02-24T12:06:07.601Z,11.202
2024-02-24T12:07:07.971Z,10.901
2024-02-24T12:08:08.028Z,10.997
2024-02-24T12:09:08.015Z,11.034
2024-02-24T12:10:07.832Z,10.842
2024-02-24T12:11:07.717Z,10.431
2024-02-24T12:12:08.194Z,10.770
2024-02-24T12:13:07.971Z,10.529
2024-02-24T12:14:07.641Z,10.692
2024-02-24T12:15:11.522Z,10.738
2024-02-24T12:17:07.089Z,10.679
2024-02-24T12:18:08.757Z,10.297
2024-02-24T12:19:07.342Z,10.150
2024-02-24T12:20:07.357Z,10.025
2024-02-24T12:21:07.474Z,10.262
2024-02-24T12:22:07.459Z,10.468
2024-02-24T12:23:07.193Z,10.505
2024-02-24T12:24:08.368Z,9.752
2024-02-24T12:25:07.248Z,9.961
2024-02-24T12:26:06.992Z,9.947
2024-02-24T12:27:08.269Z,9.619
2024-02-24T12:28:07.976Z,9.475
2024-02-24T12:29:07.744Z,9.443
2024-02-24T12:31:07.390Z,9.443
2024-02-24T12:32:07.059Z,9.702
2024-02-24T12:33:08.703Z,9.659
2024-02-24T12:34:07.949Z,9.539
2024-02-24T12:36:08.041Z,9.622
2024-02-24T12:37:08.025Z,9.675
2024-02-24T12:38:07.938Z,9.512
2024-02-24T12:39:08.147Z,9.333
2024-02-24T12:40:07.174Z,9.683
2024-02-24T12:41:07.836Z,9.819
2024-02-24T12:42:08.211Z,10.153
2024-02-24T12:43:11.418Z,10.425
2024-02-24T12:44:07.049Z,10.794
2024-02-24T12:45:08.168Z,10.933
2024-02-24T12:46:07.914Z,10.679
2024-02-24T12:47:07.677Z,10.858
2024-02-24T12:49:07.553Z,10.607
2024-02-24T12:50:08.186Z,10.554
2024-02-24T12:51:07.363Z,10.185
2024-02-24T12:54:11.470Z,10.879
2024-02-24T12:57:07.860Z,11.603
2024-02-24T12:58:07.520Z,11.456
2024-02-24T12:59:07.144Z,11.539
2024-02-24T13:00:07.321Z,11.734
2024-02-24T13:01:07.165Z,11.624
2024-02-24T13:02:07.205Z,11.173
2024-02-24T13:03:08.292Z,10.986
2024-02-24T13:04:07.654Z,11.483
2024-02-24T13:05:07.776Z,11.221
2024-02-24T13:06:08.516Z,11.117
2024-02-24T13:07:07.654Z,10.965
2024-02-24T13:08:07.399Z,11.451
2024-02-24T13:09:07.887Z,11.365
2024-02-24T13:10:07.369Z,11.013
2024-02-24T13:11:07.506Z,11.365
2024-02-24T13:12:08.216Z,11.202
2024-02-24T13:13:07.257Z,11.630
2024-02-24T13:14:08.263Z,12.001
2024-02-24T13:15:07.210Z,12.356
2024-02-24T13:16:07.957Z,11.918
2024-02-24T13:17:07.623Z,11.790
2024-02-24T13:18:08.253Z,11.654
2024-02-24T13:19:08.487Z,11.048
2024-02-24T13:21:08.326Z,11.133
2024-02-24T13:22:08.062Z,10.938
2024-02-24T13:23:07.862Z,10.778
2024-02-24T13:24:07.694Z,10.570
2024-02-24T13:25:07.433Z,10.473
2024-02-24T13:27:07.954Z,10.666
2024-02-24T13:28:07.667Z,10.805
2024-02-24T13:29:07.346Z,10.842
2024-02-24T13:30:07.944Z,10.975
2024-02-24T13:31:07.650Z,10.842
2024-02-24T13:32:07.320Z,10.391
2024-02-24T13:33:07.824Z,10.385
2024-02-24T13:34:07.792Z,10.730
2024-02-24T13:35:07.803Z,10.898
2024-02-24T13:36:07.943Z,10.839
2024-02-24T13:37:11.365Z,10.909
2024-02-24T13:38:07.065Z,10.858
2024-02-24T13:39:08.289Z,11.432
2024-02-24T13:40:07.010Z,11.104
2024-02-24T13:41:07.673Z,11.037
2024-02-24T13:42:07.741Z,10.901
2024-02-24T13:43:07.398Z,10.986
2024-02-24T13:46:07.322Z,10.839
2024-02-24T13:47:07.996Z,10.618
2024-02-24T13:48:08.446Z,10.607
2024-02-24T13:49:08.630Z,10.719
2024-02-24T13:50:07.860Z,10.612
2024-02-24T13:51:07.641Z,10.527
2024-02-24T13:53:08.264Z,10.391
2024-02-24T13:54:07.239Z,10.254
2024-02-24T13:55:08.127Z,10.011
2024-02-24T13:56:07.961Z,10.188
2024-02-24T13:57:08.297Z,10.065
2024-02-24T13:58:07.103Z,10.158
2024-02-24T13:59:07.889Z,10.043
2024-02-24T14:00:07.941Z,10.185
2024-02-24T14:01:07.667Z,9.846
2024-02-24T14:02:07.703Z,9.817
2024-02-24T14:03:07.478Z,9.987
2024-02-24T14:04:07.282Z,9.731
2024-02-24T14:05:07.495Z,9.918
2024-02-24T14:06:08.354Z,10.177
2024-02-24T14:07:07.350Z,10.212
2024-02-24T14:08:07.311Z,10.185
2024-02-24T14:09:07.693Z,10.281
2024-02-24T14:10:07.761Z,10.500
2024-02-24T14:11:07.810Z,10.479
2024-02-24T14:12:08.334Z,10.455
2024-02-24T14:13:07.156Z,10.503
2024-02-24T14:14:07.904Z,10.377
2024-02-24T14:15:07.973Z,10.316
2024-02-24T14:16:07.666Z,10.150
2024-02-24T14:17:07.328Z,9.883
2024-02-24T14:18:07.684Z,9.779
2024-02-24T14:19:08.735Z,9.819
2024-02-24T14:20:23.236Z,9.929
2024-02-24T14:22:07.352Z,9.998
2024-02-24T14:23:08.049Z,9.747
2024-02-24T14:24:08.160Z,9.720
2024-02-24T14:25:08.013Z,9.646
2024-02-24T14:27:07.898Z,9.667
2024-02-24T14:28:07.630Z,9.736
2024-02-24T14:29:11.572Z,9.902
2024-02-24T14:30:07.167Z,9.881
2024-02-24T14:31:07.894Z,9.955
2024-02-24T14:32:07.586Z,9.734
2024-02-24T14:33:07.527Z,9.643
2024-02-24T14:34:08.073Z,9.795
2024-02-24T14:35:07.205Z,9.867
2024-02-24T14:36:07.575Z,10.022
2024-02-24T14:37:07.279Z,9.995
2024-02-24T14:38:07.930Z,10.158
2024-02-24T14:39:08.264Z,10.380
2024-02-24T14:40:06.985Z,10.639
2024-02-24T14:41:07.642Z,10.690